Time;durP1;ratioP1;P1;durP2;ratioP2;P2;SDS_P1;SDS_P2;PMS_P1;PMS_P2;Temp;Humidity;BMP_temperature;BMP_pressure;BME280_temperature;BME280_humidity;BME280_pressure;Samples;Min_cycle;Max_cycle;Signal;HPM_P1;HPM_P2
2022/03/15 00:01:13;;;;;;;71.60;26.70;;;;;;;3.49;43.65;101722.25;4358892;32;33658;-88
2022/03/15 00:03:41;;;;;;;70.43;27.55;;;;;;;3.39;43.97;101717.75;4358786;32;34814;-87
2022/03/15 00:06:09;;;;;;;68.07;24.98;;;;;;;3.59;43.72;101713.72;4358508;32;33772;-88
2022/03/15 00:08:36;;;;;;;50.95;22.20;;;;;;;3.46;43.90;101705.66;4358873;32;34397;-87
2022/03/15 00:11:05;;;;;;;51.47;20.92;;;;;;;3.44;44.06;101700.44;4358700;32;33912;-87
2022/03/15 00:13:35;;;;;;;49.67;20.17;;;;;;;3.37;44.23;101702.91;4356828;32;33155;-88
2022/03/15 00:16:03;;;;;;;45.83;19.60;;;;;;;3.56;43.76;101702.34;4358533;32;33664;-87
2022/03/15 00:18:31;;;;;;;58.87;22.15;;;;;;;3.49;44.11;101710.94;4357801;32;33703;-87
2022/03/15 00:21:02;;;;;;;63.20;25.65;;;;;;;3.57;43.86;101705.00;4358703;32;33844;-86
2022/03/15 00:23:31;;;;;;;58.03;24.25;;;;;;;3.59;43.84;101697.16;4358516;32;33651;-86
2022/03/15 00:26:00;;;;;;;61.55;22.62;;;;;;;3.55;43.92;101696.22;4354431;32;34281;-86
2022/03/15 00:28:29;;;;;;;63.75;22.85;;;;;;;3.56;43.68;101687.56;4345905;33;32655;-86
2022/03/15 00:30:58;;;;;;;60.80;23.15;;;;;;;3.49;44.04;101684.81;4357586;32;36485;-86
2022/03/15 00:33:30;;;;;;;58.67;22.50;;;;;;;3.47;43.99;101678.72;4356923;32;33448;-88
2022/03/15 00:35:59;;;;;;;56.60;20.33;;;;;;;3.35;44.42;101684.59;4358952;32;32956;-89
2022/03/15 00:38:29;;;;;;;48.87;19.57;;;;;;;3.55;43.79;101684.91;4358133;32;33412;-89
2022/03/15 00:40:58;;;;;;;57.45;22.65;;;;;;;3.52;43.77;101687.50;4358016;32;33202;-89
2022/03/15 00:43:26;;;;;;;45.75;18.73;;;;;;;3.33;44.77;101684.59;4356715;32;33402;-88
2022/03/15 00:46:06;;;;;;;32.63;15.32;;;;;;;3.61;43.88;101685.03;4356683;32;33311;-89
2022/03/15 00:48:33;;;;;;;50.03;19.73;;;;;;;3.39;44.42;101686.41;4345657;32;33235;-87
2022/03/15 00:51:02;;;;;;;54.45;20.08;;;;;;;3.21;44.78;101689.59;4353675;32;33626;-88
2022/03/15 00:53:29;;;;;;;44.13;17.65;;;;;;;3.29;44.67;101693.22;4351122;32;33223;-88
2022/03/15 00:55:56;;;;;;;47.45;17.98;;;;;;;3.32;44.43;101693.28;4358246;32;33875;-88
2022/03/15 00:58:24;;;;;;;45.20;17.02;;;;;;;3.26;45.04;101698.37;4345675;33;32501;-88
2022/03/15 01:00:54;;;;;;;33.38;16.40;;;;;;;3.36;44.66;101688.97;4357875;32;34040;-88
2022/03/15 01:03:22;;;;;;;40.92;16.37;;;;;;;3.38;44.41;101675.97;4357842;32;33006;-88
2022/03/15 01:05:51;;;;;;;63.85;22.65;;;;;;;3.26;44.92;101677.50;4357741;32;34028;-85
2022/03/15 01:08:18;;;;;;;63.05;23.98;;;;;;;3.40;44.58;101672.50;4358672;32;33596;-85
2022/03/15 01:10:46;;;;;;;48.03;20.00;;;;;;;3.31;44.82;101662.78;4359920;32;34675;-85
2022/03/15 01:13:15;;;;;;;34.53;15.82;;;;;;;3.45;44.50;101655.16;4359754;32;33687;-85
2022/03/15 01:15:43;;;;;;;35.70;14.95;;;;;;;3.29;44.71;101655.81;4359606;32;33545;-85
2022/03/15 01:18:12;;;;;;;36.70;14.93;;;;;;;3.42;44.36;101651.63;4359398;32;33328;-85
2022/03/15 01:20:42;;;;;;;38.05;15.70;;;;;;;3.44;44.50;101645.59;4359529;32;34252;-86
2022/03/15 01:23:11;;;;;;;38.17;14.27;;;;;;;3.53;44.27;101645.72;4359989;32;33657;-86
2022/03/15 01:25:40;;;;;;;36.97;16.05;;;;;;;3.41;44.74;101649.88;4353752;32;33935;-87
2022/03/15 01:28:09;;;;;;;43.78;16.80;;;;;;;3.25;45.09;101639.19;4359447;32;33253;-87
2022/03/15 01:30:37;;;;;;;40.80;15.80;;;;;;;3.44;44.56;101647.31;4351366;32;33279;-86
2022/03/15 01:33:06;;;;;;;39.72;16.75;;;;;;;3.46;44.38;101640.37;4359569;32;33449;-85
2022/03/15 01:35:35;;;;;;;44.17;17.05;;;;;;;3.31;44.77;101643.63;4359466;32;33432;-85
2022/03/15 01:38:03;;;;;;;50.97;17.77;;;;;;;3.28;44.92;101641.88;4359429;32;32610;-84
2022/03/15 01:40:33;;;;;;;42.65;15.38;;;;;;;3.45;44.53;101636.00;4359484;32;34293;-85
2022/03/15 01:43:01;;;;;;;49.75;18.83;;;;;;;3.34;44.64;101641.09;4359421;32;33177;-85
2022/03/15 01:45:39;;;;;;;39.92;16.02;;;;;;;3.73;43.62;101642.50;4358247;32;33286;-86
2022/03/15 01:48:08;;;;;;;61.05;19.40;;;;;;;3.34;44.88;101644.56;4359625;32;32754;-86
2022/03/15 01:50:37;;;;;;;60.25;21.60;;;;;;;3.12;45.27;101652.91;4347130;33;34041;-85
2022/03/15 01:53:06;;;;;;;57.78;20.12;;;;;;;3.27;44.79;101653.16;4359404;32;34168;-85
2022/03/15 01:55:34;;;;;;;67.03;23.12;;;;;;;3.25;45.06;101654.88;4359526;32;34467;-83
2022/03/15 01:58:02;;;;;;;50.17;21.73;;;;;;;3.29;44.92;101661.91;4359413;32;33418;-84
2022/03/15 02:00:31;;;;;;;53.10;19.37;;;;;;;3.39;44.60;101655.09;4359488;32;34621;-83
2022/03/15 02:03:05;;;;;;;56.45;20.23;;;;;;;3.29;44.70;101653.19;4347252;33;33143;-83
2022/03/15 02:05:33;;;;;;;73.93;22.70;;;;;;;3.27;44.71;101657.50;4359190;32;33432;-84
2022/03/15 02:08:14;;;;;;;79.12;28.42;;;;;;;3.21;44.94;101658.28;4359422;32;33478;-84
2022/03/15 02:10:41;;;;;;;98.72;32.70;;;;;;;3.22;44.95;101653.94;4359857;32;33675;-85
2022/03/15 02:13:10;;;;;;;101.97;35.92;;;;;;;3.13;45.17;101646.81;4357526;32;34067;-85
2022/03/15 02:15:38;;;;;;;53.87;21.48;;;;;;;3.29;44.87;101641.00;4359494;32;34202;-84
2022/03/15 02:18:07;;;;;;;69.75;23.83;;;;;;;3.55;44.15;101648.34;4359078;32;33812;-86
2022/03/15 02:20:35;;;;;;;72.68;25.70;;;;;;;3.21;45.22;101652.19;4347292;32;34308;-86
2022/03/15 02:23:03;;;;;;;77.80;26.52;;;;;;;3.05;45.40;101644.13;4359498;32;33874;-87
2022/03/15 02:25:31;;;;;;;73.10;26.37;;;;;;;2.83;45.86;101649.81;4347135;33;33109;-86
2022/03/15 02:27:59;;;;;;;80.05;29.00;;;;;;;2.91;45.65;101647.34;4359115;32;33301;-85
2022/03/15 02:30:27;;;;;;;90.35;29.90;;;;;;;2.97;45.63;101642.22;4358403;32;33515;-85
2022/03/15 02:32:55;;;;;;;90.62;28.98;;;;;;;3.01;45.53;101644.03;4357190;32;35006;-85
2022/03/15 02:35:22;;;;;;;81.25;29.33;;;;;;;2.97;45.79;101644.84;4357953;32;34540;-85
2022/03/15 02:37:50;;;;;;;73.28;28.00;;;;;;;3.04;45.54;101647.59;4356559;32;33392;-86
2022/03/15 02:40:19;;;;;;;69.65;24.73;;;;;;;3.16;45.22;101657.31;4356881;32;33814;-85
2022/03/15 02:42:46;;;;;;;69.30;25.40;;;;;;;2.80;46.48;101661.09;4358993;32;34002;-85
2022/03/15 02:45:15;;;;;;;71.62;24.98;;;;;;;3.12;45.62;101665.97;4359074;32;33012;-85
2022/03/15 02:47:46;;;;;;;55.60;23.70;;;;;;;3.01;45.74;101659.69;4358743;32;33655;-85
2022/03/15 02:50:14;;;;;;;60.90;21.95;;;;;;;2.95;45.84;101657.88;4356293;32;32954;-85
2022/03/15 02:52:43;;;;;;;44.60;19.33;;;;;;;2.56;47.04;101658.91;4358749;32;33863;-85
2022/03/15 02:55:11;;;;;;;54.70;18.55;;;;;;;3.17;45.33;101660.81;4359075;32;34752;-86
2022/03/15 02:57:41;;;;;;;51.85;19.23;;;;;;;2.86;46.04;101664.66;4357094;32;33478;-86
2022/03/15 03:00:10;;;;;;;42.47;17.77;;;;;;;2.76;46.52;101667.09;4358938;32;33549;-85
2022/03/15 03:02:38;;;;;;;50.25;21.37;;;;;;;2.73;46.64;101661.81;4358821;32;33953;-85
2022/03/15 03:05:06;;;;;;;43.60;17.65;;;;;;;2.67;46.78;101664.31;4359335;32;33422;-85
2022/03/15 03:07:35;;;;;;;31.83;13.70;;;;;;;2.68;46.53;101658.25;4358810;32;33508;-85
2022/03/15 03:10:04;;;;;;;38.60;16.12;;;;;;;2.82;46.07;101656.75;4350951;32;34491;-85
2022/03/15 03:12:32;;;;;;;32.22;14.05;;;;;;;2.87;45.81;101656.84;4359060;32;34328;-85
2022/03/15 03:15:01;;;;;;;32.08;14.32;;;;;;;2.79;46.12;101654.09;4346641;33;34325;-86
2022/03/15 03:17:28;;;;;;;35.40;13.90;;;;;;;2.70;46.12;101653.91;4358929;32;33530;-85
2022/03/15 03:19:56;;;;;;;31.33;12.30;;;;;;;2.54;46.80;101651.91;4358882;32;33418;-86
2022/03/15 03:22:24;;;;;;;29.52;12.05;;;;;;;2.70;46.38;101653.91;4358884;32;34159;-86
2022/03/15 03:24:52;;;;;;;32.33;12.73;;;;;;;2.75;46.27;101651.41;4352897;32;32962;-85
2022/03/15 03:27:19;;;;;;;23.90;11.23;;;;;;;2.81;46.09;101652.41;4358669;32;32897;-86
2022/03/15 03:29:48;;;;;;;22.85;11.23;;;;;;;2.80;46.08;101650.66;4333478;33;33161;-87
2022/03/15 03:32:16;;;;;;;16.23;9.02;;;;;;;2.49;46.82;101648.31;4358944;32;33606;-86
2022/03/15 03:34:43;;;;;;;21.48;11.00;;;;;;;2.58;46.64;101651.09;4357663;32;34182;-85
2022/03/15 03:37:11;;;;;;;22.80;11.40;;;;;;;2.52;47.09;101651.88;4347807;33;33410;-87
2022/03/15 03:39:39;;;;;;;30.05;12.05;;;;;;;2.78;46.22;101654.06;4359061;32;33156;-86
2022/03/15 03:42:07;;;;;;;25.45;12.07;;;;;;;2.51;47.06;101657.91;4358889;32;34309;-86
2022/03/15 03:44:36;;;;;;;23.48;11.25;;;;;;;2.64;46.62;101664.25;4358576;32;35112;-86
2022/03/15 03:47:04;;;;;;;23.60;12.23;;;;;;;2.58;46.70;101661.53;4358784;32;32787;-85
2022/03/15 03:49:32;;;;;;;23.80;10.32;;;;;;;2.43;46.90;101666.47;4346887;32;32054;-87
2022/03/15 03:52:00;;;;;;;21.45;9.25;;;;;;;2.34;47.31;101664.56;4358824;32;33962;-86
2022/03/15 03:54:28;;;;;;;23.20;10.00;;;;;;;2.37;47.33;101664.59;4359067;32;32793;-85
2022/03/15 03:56:55;;;;;;;18.73;9.10;;;;;;;2.57;46.47;101667.63;4358701;32;33330;-85
2022/03/15 03:59:23;;;;;;;19.83;9.15;;;;;;;2.42;46.96;101669.91;4350603;32;33359;-85
2022/03/15 04:01:51;;;;;;;21.17;11.43;;;;;;;2.49;46.82;101677.00;4358724;32;33701;-85
2022/03/15 04:04:32;;;;;;;19.83;10.23;;;;;;;2.24;47.07;101679.12;4358822;32;33056;-85
2022/03/15 04:07:00;;;;;;;18.58;8.68;;;;;;;2.35;46.46;101674.13;4358547;32;33762;-85
2022/03/15 04:09:28;;;;;;;16.17;8.25;;;;;;;1.91;47.80;101678.44;4358017;32;34481;-85
2022/03/15 04:11:56;;;;;;;23.08;9.75;;;;;;;2.23;47.08;101666.06;4345408;33;34051;-85
2022/03/15 04:14:24;;;;;;;17.75;8.77;;;;;;;2.25;47.03;101669.59;4358564;32;33665;-85
2022/03/15 04:16:52;;;;;;;20.20;8.77;;;;;;;2.29;46.79;101666.19;4358192;32;33477;-85
2022/03/15 04:19:21;;;;;;;23.90;10.20;;;;;;;2.37;46.69;101661.13;4356693;32;32558;-84
2022/03/15 04:21:49;;;;;;;20.80;10.00;;;;;;;2.22;46.93;101666.91;4358405;32;33896;-84
2022/03/15 04:24:17;;;;;;;21.12;10.15;;;;;;;2.29;46.87;101672.28;4358815;32;34456;-84
2022/03/15 04:26:46;;;;;;;22.25;10.98;;;;;;;2.40;46.54;101671.63;4358475;32;33889;-84
2022/03/15 04:29:13;;;;;;;23.10;9.98;;;;;;;2.37;46.43;101671.53;4355263;32;85735;-84
2022/03/15 04:31:41;;;;;;;25.92;10.43;;;;;;;2.23;47.01;101672.16;4358395;32;33688;-84
2022/03/15 04:34:09;;;;;;;23.48;11.30;;;;;;;2.14;47.53;101677.19;4358558;32;33915;-84
2022/03/15 04:36:37;;;;;;;21.52;9.57;;;;;;;2.01;47.69;101675.19;4358100;32;33211;-84
2022/03/15 04:39:05;;;;;;;19.65;9.27;;;;;;;1.88;48.20;101693.97;4357577;32;34697;-84
2022/03/15 04:41:32;;;;;;;21.23;9.98;;;;;;;1.98;47.97;101686.41;4357171;32;33041;-83
2022/03/15 04:44:00;;;;;;;16.87;8.75;;;;;;;1.96;47.95;101687.22;4357870;32;33766;-84
2022/03/15 04:46:28;;;;;;;18.85;8.88;;;;;;;1.88;47.89;101694.84;4358054;32;33540;-84
2022/03/15 04:48:56;;;;;;;21.80;9.38;;;;;;;1.93;47.28;101687.16;4357911;32;33566;-84
2022/03/15 04:51:25;;;;;;;22.25;9.60;;;;;;;1.73;48.12;101687.59;4358183;32;33512;-85
2022/03/15 04:53:53;;;;;;;21.25;9.25;;;;;;;1.76;48.20;101695.47;4357971;32;33839;-85
2022/03/15 04:56:21;;;;;;;20.83;9.13;;;;;;;1.88;48.08;101691.37;4357949;32;33170;-85
2022/03/15 04:58:49;;;;;;;18.98;8.77;;;;;;;1.61;48.80;101694.22;4357719;32;33594;-84
2022/03/15 05:01:17;;;;;;;23.05;9.98;;;;;;;1.79;48.11;101698.13;4357636;32;33011;-85
2022/03/15 05:03:45;;;;;;;23.33;8.98;;;;;;;1.92;47.58;101698.41;4343266;33;33949;-84
2022/03/15 05:06:13;;;;;;;21.95;9.23;;;;;;;2.00;47.09;101700.34;4351282;32;34008;-84
2022/03/15 05:08:41;;;;;;;15.38;8.35;;;;;;;1.94;47.26;101699.31;4357905;32;34551;-84
2022/03/15 05:11:09;;;;;;;13.52;8.18;;;;;;;1.80;47.82;101704.22;4355191;32;33666;-85
2022/03/15 05:13:43;;;;;;;15.23;8.23;;;;;;;2.03;47.24;101704.72;4354882;32;33360;-84
2022/03/15 05:16:21;;;;;;;17.33;8.48;;;;;;;1.99;47.42;101708.13;4351958;32;32377;-84
2022/03/15 05:18:54;;;;;;;16.83;8.02;;;;;;;2.18;46.92;101705.06;4343416;33;34110;-83
2022/03/15 05:21:24;;;;;;;14.48;6.97;;;;;;;2.00;47.21;101708.16;4344966;33;34380;-84
2022/03/15 05:23:54;;;;;;;15.85;7.45;;;;;;;1.70;48.41;101704.87;4357656;32;33666;-86
2022/03/15 05:26:22;;;;;;;16.08;8.18;;;;;;;1.89;48.13;101700.94;4355790;32;33587;-86
2022/03/15 05:28:51;;;;;;;16.27;8.18;;;;;;;1.93;47.94;101698.44;4342986;33;33858;-86
2022/03/15 05:31:20;;;;;;;16.27;8.80;;;;;;;1.85;48.21;101696.50;4356680;32;33019;-85
2022/03/15 05:33:52;;;;;;;16.12;8.77;;;;;;;1.99;48.00;101695.09;4354316;32;33238;-86
2022/03/15 05:36:19;;;;;;;13.77;7.55;;;;;;;1.91;48.42;101694.06;4354768;32;32528;-86
2022/03/15 05:38:47;;;;;;;17.62;8.88;;;;;;;2.27;47.32;101689.59;4357584;32;32781;-86
2022/03/15 05:41:15;;;;;;;19.17;7.55;;;;;;;2.41;46.83;101692.50;4357581;32;33522;-85
2022/03/15 05:43:54;;;;;;;16.33;8.20;;;;;;;2.07;47.97;101688.31;4352799;32;34856;-86
2022/03/15 05:46:23;;;;;;;16.67;8.25;;;;;;;1.88;48.43;101702.69;4356655;32;33344;-85
2022/03/15 05:48:50;;;;;;;14.48;8.05;;;;;;;2.13;48.15;101691.03;4357026;32;34315;-85
2022/03/15 05:51:19;;;;;;;19.10;7.62;;;;;;;2.13;48.03;101692.78;4357422;32;34876;-85
2022/03/15 05:53:46;;;;;;;17.00;8.35;;;;;;;2.24;47.90;101692.16;4358055;32;33816;-85
2022/03/15 05:56:14;;;;;;;18.73;9.05;;;;;;;2.46;47.41;101690.84;4360051;32;33333;-85
2022/03/15 05:58:46;;;;;;;15.83;7.87;;;;;;;2.59;47.09;101693.72;4359624;32;33327;-85
2022/03/15 06:01:16;;;;;;;22.17;10.38;;;;;;;2.79;46.52;101684.50;4347275;33;32898;-85
2022/03/15 06:03:45;;;;;;;23.30;10.35;;;;;;;2.74;46.48;101681.81;4359623;32;32674;-85
2022/03/15 06:06:13;;;;;;;21.45;9.40;;;;;;;2.89;46.32;101689.03;4359690;32;33401;-85
2022/03/15 06:08:41;;;;;;;15.73;7.78;;;;;;;2.92;46.06;101685.63;4350933;32;33073;-85
2022/03/15 06:11:11;;;;;;;18.98;9.88;;;;;;;2.79;46.48;101690.59;4359202;32;33616;-85
2022/03/15 06:13:38;;;;;;;22.15;8.90;;;;;;;3.11;45.58;101682.47;4344470;33;33367;-85
2022/03/15 06:16:06;;;;;;;16.10;8.77;;;;;;;2.95;46.38;101680.47;4347013;33;32854;-84
2022/03/15 06:18:34;;;;;;;13.93;8.27;;;;;;;3.11;45.83;101684.22;4354149;32;33167;-84
2022/03/15 06:21:03;;;;;;;17.70;7.97;;;;;;;3.24;45.87;101683.56;4359347;32;33529;-84
2022/03/15 06:23:31;;;;;;;17.20;9.20;;;;;;;3.47;45.58;101689.16;4359463;32;34329;-84
2022/03/15 06:26:09;;;;;;;18.95;8.73;;;;;;;3.64;45.35;101682.44;4359282;32;33634;-84
2022/03/15 06:28:37;;;;;;;16.15;9.15;;;;;;;3.57;45.64;101685.84;4358267;32;34590;-84
2022/03/15 06:31:06;;;;;;;18.20;8.77;;;;;;;3.85;45.03;101695.81;4356802;32;33707;-84
2022/03/15 06:33:34;;;;;;;21.25;10.02;;;;;;;3.95;45.37;101695.97;4359003;32;33964;-84
2022/03/15 06:36:04;;;;;;;25.70;11.65;;;;;;;4.25;45.13;101693.72;4359356;32;33288;-84
2022/03/15 06:38:32;;;;;;;17.25;9.98;;;;;;;4.34;44.45;101690.34;4358523;32;35229;-84
2022/03/15 06:41:10;;;;;;;23.08;11.07;;;;;;;4.31;44.84;101685.94;4349677;32;33988;-84
2022/03/15 06:43:40;;;;;;;19.50;10.63;;;;;;;4.22;45.27;101688.44;4346736;33;34820;-84
2022/03/15 06:46:08;;;;;;;21.27;10.18;;;;;;;4.51;45.19;101680.97;4359370;32;34147;-84
2022/03/15 06:48:35;;;;;;;24.80;11.18;;;;;;;4.74;44.53;101678.56;4358769;32;34289;-85
2022/03/15 06:51:04;;;;;;;24.08;10.73;;;;;;;4.79;44.75;101679.50;4359051;32;33941;-84
2022/03/15 06:53:32;;;;;;;24.90;11.23;;;;;;;4.68;44.40;101673.28;4356202;32;33407;-85
2022/03/15 06:56:01;;;;;;;31.10;12.57;;;;;;;5.08;44.26;101671.03;4356545;32;32626;-84
2022/03/15 06:58:29;;;;;;;20.75;10.85;;;;;;;5.35;43.18;101668.66;4359145;32;33724;-86
2022/03/15 07:00:56;;;;;;;22.35;11.43;;;;;;;5.37;40.50;101661.69;4346845;33;33399;-85
2022/03/15 07:03:24;;;;;;;22.25;11.18;;;;;;;5.10;40.21;101658.84;4359125;32;34048;-85
2022/03/15 07:05:52;;;;;;;23.40;11.40;;;;;;;5.29;39.71;101655.50;4356972;32;33810;-84
2022/03/15 07:08:20;;;;;;;22.67;10.73;;;;;;;5.77;39.14;101648.84;4357080;32;33913;-84
2022/03/15 07:10:48;;;;;;;21.52;11.32;;;;;;;6.12;38.58;101643.81;4356991;32;33936;-84
2022/03/15 07:13:15;;;;;;;23.42;11.05;;;;;;;5.81;39.03;101648.00;4347901;32;33784;-84
2022/03/15 07:15:43;;;;;;;17.87;9.88;;;;;;;6.04;38.24;101647.25;4358811;32;33400;-85
2022/03/15 07:18:11;;;;;;;23.60;12.02;;;;;;;6.39;38.52;101643.00;4359122;32;33839;-85
2022/03/15 07:20:39;;;;;;;23.65;12.57;;;;;;;6.80;37.48;101638.72;4358792;32;33847;-85
2022/03/15 07:23:07;;;;;;;25.62;11.65;;;;;;;6.95;38.18;101632.59;4357374;32;33852;-85
2022/03/15 07:25:34;;;;;;;21.30;10.77;;;;;;;7.14;37.23;101637.84;4353974;32;33657;-85
2022/03/15 07:28:03;;;;;;;25.02;12.15;;;;;;;7.20;36.41;101642.22;4347649;33;33937;-85
2022/03/15 07:30:30;;;;;;;21.25;11.18;;;;;;;7.03;35.93;101646.63;4356988;32;32208;-85
2022/03/15 07:32:59;;;;;;;21.05;10.65;;;;;;;7.33;34.40;101638.72;4358572;32;33379;-85
2022/03/15 07:35:28;;;;;;;18.15;8.27;;;;;;;7.53;34.02;101641.31;4357144;32;33213;-85
2022/03/15 07:37:56;;;;;;;18.23;10.82;;;;;;;7.99;32.25;101629.81;4358428;32;33108;-85
2022/03/15 07:40:26;;;;;;;20.67;11.27;;;;;;;7.83;33.31;101632.50;4358958;32;33794;-86
2022/03/15 07:42:54;;;;;;;15.35;9.38;;;;;;;8.29;33.69;101629.66;4353181;32;34499;-85
2022/03/15 07:45:22;;;;;;;22.50;11.00;;;;;;;8.22;32.84;101643.75;4358547;32;34010;-85
2022/03/15 07:47:50;;;;;;;19.25;9.60;;;;;;;8.26;32.18;101639.31;4358561;32;33560;-86
2022/03/15 07:50:18;;;;;;;21.05;11.20;;;;;;;8.70;32.06;101644.38;4357397;32;33531;-85
2022/03/15 07:52:47;;;;;;;20.37;9.88;;;;;;;9.16;31.50;101638.75;4358287;32;34721;-85
2022/03/15 07:55:15;;;;;;;20.77;10.85;;;;;;;9.06;31.64;101645.00;4358228;32;32927;-86
2022/03/15 07:57:43;;;;;;;21.48;11.15;;;;;;;9.10;32.05;101637.03;4358732;32;34039;-85
2022/03/15 08:00:11;;;;;;;23.58;11.52;;;;;;;9.35;33.37;101631.56;4356890;32;32613;-86
2022/03/15 08:02:39;;;;;;;23.80;12.50;;;;;;;9.70;32.75;101637.34;4347464;33;34822;-86
2022/03/15 08:05:08;;;;;;;25.02;12.25;;;;;;;9.93;31.59;101634.47;4356738;32;34430;-85
2022/03/15 08:07:36;;;;;;;25.52;12.93;;;;;;;10.28;31.07;101633.19;4358055;32;33562;-85
2022/03/15 08:10:08;;;;;;;22.58;12.45;;;;;;;10.46;30.44;101632.06;4358634;32;32907;-86
2022/03/15 08:12:37;;;;;;;23.70;12.90;;;;;;;10.63;30.39;101626.50;4358323;32;33325;-86
2022/03/15 08:15:06;;;;;;;26.62;11.95;;;;;;;10.41;30.57;101629.47;4355978;32;33066;-87
2022/03/15 08:17:34;;;;;;;25.17;12.23;;;;;;;10.27;31.31;101626.16;4358208;32;34546;-89
2022/03/15 08:20:03;;;;;;;23.00;13.20;;;;;;;10.88;30.92;101614.69;4358688;32;33005;-87
2022/03/15 08:22:31;;;;;;;24.87;13.00;;;;;;;10.69;30.05;101621.16;4357415;32;32941;-89
2022/03/15 08:25:00;;;;;;;28.55;12.80;;;;;;;10.80;29.69;101619.22;4358469;32;33450;-89
2022/03/15 08:27:28;;;;;;;27.08;13.45;;;;;;;11.40;29.34;101613.81;4357006;32;33783;-89
2022/03/15 08:29:55;;;;;;;23.25;13.73;;;;;;;11.51;29.73;101617.13;4334386;32;34094;-89
2022/03/15 08:32:23;;;;;;;23.05;12.70;;;;;;;11.45;29.39;101609.31;4346347;33;32665;-89
2022/03/15 08:34:52;;;;;;;24.95;13.25;;;;;;;11.12;28.99;101613.41;4357301;32;33476;-87
2022/03/15 08:37:20;;;;;;;20.67;12.75;;;;;;;11.46;29.08;101603.09;4357183;32;33892;-86
2022/03/15 08:39:48;;;;;;;26.52;11.12;;;;;;;11.73;27.95;101601.72;4344314;33;32984;-87
2022/03/15 08:42:16;;;;;;;20.98;12.13;;;;;;;11.38;28.30;101605.00;4357415;32;33845;-86
2022/03/15 08:44:43;;;;;;;20.42;12.23;;;;;;;11.89;28.28;101606.72;4354897;32;33769;-87
2022/03/15 08:47:11;;;;;;;23.80;13.10;;;;;;;11.69;29.52;101599.16;4357258;32;33436;-85
2022/03/15 08:49:41;;;;;;;21.17;10.80;;;;;;;12.29;28.76;101597.00;4355911;32;34562;-85
2022/03/15 08:52:08;;;;;;;17.58;10.25;;;;;;;12.66;26.18;101585.56;4357316;32;34854;-84
2022/03/15 08:54:37;;;;;;;21.52;10.30;;;;;;;12.45;26.05;101579.00;4357675;32;33730;-85
2022/03/15 08:57:05;;;;;;;19.62;10.77;;;;;;;12.89;25.45;101576.19;4357450;32;33815;-85
2022/03/15 08:59:32;;;;;;;17.45;9.45;;;;;;;12.91;24.28;101572.59;4349926;32;33514;-85
2022/03/15 09:02:01;;;;;;;19.60;10.23;;;;;;;13.05;24.39;101575.78;4356687;32;32839;-86
2022/03/15 09:04:32;;;;;;;15.80;9.90;;;;;;;12.93;24.23;101573.44;4345508;33;32504;-87
2022/03/15 09:06:59;;;;;;;15.40;9.15;;;;;;;12.99;24.40;101572.41;4339084;32;34246;-86
2022/03/15 09:09:27;;;;;;;13.60;8.65;;;;;;;12.74;25.45;101562.41;4358020;32;33544;-87
2022/03/15 09:11:56;;;;;;;11.45;8.50;;;;;;;13.37;24.94;101562.59;4357413;32;33583;-87
2022/03/15 09:14:24;;;;;;;14.27;9.43;;;;;;;13.75;23.60;101548.25;4355986;32;33132;-87
2022/03/15 09:16:51;;;;;;;18.42;11.98;;;;;;;13.72;23.90;101548.31;4357435;32;33433;-87
2022/03/15 09:19:20;;;;;;;14.77;9.55;;;;;;;13.66;25.27;101543.19;4357108;32;35184;-87
2022/03/15 09:21:47;;;;;;;15.50;9.63;;;;;;;14.31;23.25;101543.03;4357250;32;34515;-87
2022/03/15 09:24:15;;;;;;;15.57;9.10;;;;;;;13.79;23.20;101539.28;4357244;32;34304;-87
2022/03/15 09:26:44;;;;;;;18.33;10.23;;;;;;;14.23;23.03;101534.41;4344949;33;33620;-87
2022/03/15 09:29:12;;;;;;;15.20;9.07;;;;;;;14.25;23.98;101525.50;4357836;32;34180;-86
2022/03/15 09:31:40;;;;;;;17.45;10.48;;;;;;;14.48;23.07;101519.47;4359256;32;34443;-86
2022/03/15 09:34:08;;;;;;;20.17;9.48;;;;;;;14.17;22.76;101518.66;4348161;33;34133;-86
2022/03/15 09:36:36;;;;;;;19.42;8.40;;;;;;;14.29;24.92;101526.22;4359110;32;34333;-86
2022/03/15 09:39:09;;;;;;;16.23;9.20;;;;;;;14.82;23.18;101518.34;4359098;32;34065;-87
2022/03/15 09:41:38;;;;;;;12.32;8.80;;;;;;;14.41;23.80;101522.34;4359266;32;34477;-86
2022/03/15 09:44:08;;;;;;;16.05;9.75;;;;;;;14.93;22.95;101505.53;4357961;32;33339;-85
2022/03/15 09:46:42;;;;;;;17.92;9.98;;;;;;;14.85;22.53;101518.22;4357975;32;33784;-86
2022/03/15 09:49:25;;;;;;;19.40;9.85;;;;;;;14.82;24.19;101511.25;4358268;32;32178;-86
2022/03/15 09:51:57;;;;;;;16.65;10.63;;;;;;;14.61;22.71;101517.25;4358885;32;34022;-86
2022/03/15 09:54:26;;;;;;;21.08;9.57;;;;;;;14.52;23.64;101515.78;4359436;32;33704;-86
2022/03/15 09:56:54;;;;;;;18.95;11.10;;;;;;;14.83;23.82;101509.44;4358465;32;34365;-86
2022/03/15 09:59:23;;;;;;;20.85;10.40;;;;;;;14.55;25.09;101510.38;4358953;32;32321;-87
2022/03/15 10:01:54;;;;;;;19.52;11.10;;;;;;;15.01;23.04;101498.19;4351007;32;32520;-86
2022/03/15 10:04:23;;;;;;;16.42;10.18;;;;;;;15.36;22.95;101493.38;4359062;32;33386;-87
2022/03/15 10:06:52;;;;;;;15.13;9.68;;;;;;;14.93;23.00;101494.91;4358702;32;34252;-87
2022/03/15 10:09:21;;;;;;;20.12;11.48;;;;;;;14.78;23.28;101503.41;4361341;32;33923;-91
2022/03/15 10:11:52;;;;;;;22.85;10.10;;;;;;;14.39;25.57;101503.78;4358613;32;34036;-90
2022/03/15 10:14:20;;;;;;;17.60;10.65;;;;;;;14.74;24.89;101499.13;4344450;33;33006;-91
2022/03/15 10:17:03;;;;;;;14.63;8.85;;;;;;;15.27;24.39;101493.72;4356695;32;33477;-91
2022/03/15 10:19:32;;;;;;;13.45;8.68;;;;;;;15.43;24.09;101492.25;4360828;32;33616;-91
2022/03/15 10:22:04;;;;;;;15.25;8.27;;;;;;;15.42;23.39;101486.94;4360810;32;32526;-90
2022/03/15 10:24:32;;;;;;;14.57;9.13;;;;;;;15.72;24.62;101484.97;4360596;32;33182;-91
2022/03/15 10:27:01;;;;;;;14.75;8.88;;;;;;;16.01;23.30;101487.37;4348544;33;33844;-90
2022/03/15 10:29:30;;;;;;;14.65;8.90;;;;;;;16.15;22.17;101477.97;4361149;32;33635;-91
2022/03/15 10:32:00;;;;;;;12.90;8.57;;;;;;;16.22;23.94;101482.13;4348698;33;34234;-91
2022/03/15 10:34:34;;;;;;;21.33;10.35;;;;;;;16.57;22.30;101470.00;4361074;32;33001;-90
2022/03/15 10:37:02;;;;;;;13.40;8.55;;;;;;;16.32;22.54;101465.69;4348191;33;32797;-90
2022/03/15 10:39:30;;;;;;;18.45;8.95;;;;;;;16.69;23.26;101452.62;4348453;33;32742;-91
2022/03/15 10:42:08;;;;;;;13.02;8.60;;;;;;;16.41;22.83;101453.78;4360736;32;33499;-90
2022/03/15 10:44:40;;;;;;;18.00;10.02;;;;;;;16.12;22.70;101449.63;4361003;32;32269;-90
2022/03/15 10:47:15;;;;;;;16.33;9.90;;;;;;;16.60;23.92;101436.06;4360929;32;32510;-90
2022/03/15 10:49:54;;;;;;;18.55;10.15;;;;;;;16.62;21.85;101436.87;4360682;32;32638;-90
2022/03/15 10:52:28;;;;;;;17.75;11.05;;;;;;;16.49;22.15;101433.00;4348059;32;33087;-90
2022/03/15 10:54:56;;;;;;;27.17;10.52;;;;;;;16.75;22.43;101418.56;4358049;32;32268;-91
2022/03/15 10:57:30;;;;;;;22.23;12.35;;;;;;;17.08;22.09;101416.19;4360088;32;33222;-90
2022/03/15 11:00:06;;;;;;;16.77;9.02;;;;;;;16.83;23.12;101413.75;4359500;32;33294;-91
2022/03/15 11:02:34;;;;;;;19.30;10.27;;;;;;;17.00;21.38;101409.50;4348320;33;33038;-90
2022/03/15 11:05:03;;;;;;;13.55;9.13;;;;;;;17.01;21.55;101401.41;4351806;32;32659;-91
2022/03/15 11:07:40;;;;;;;13.10;8.23;;;;;;;17.11;22.85;101389.37;4363588;32;32502;-90
2022/03/15 11:10:12;;;;;;;14.65;8.90;;;;;;;17.22;21.53;101388.00;4364945;32;33900;-89
2022/03/15 11:12:56;;;;;;;14.05;8.98;;;;;;;17.13;21.12;101379.47;4357834;32;33527;-90
2022/03/15 11:19:55;;;;;;;13.10;7.72;;;;;;;17.65;21.69;101358.34;4349791;33;35385;-91
2022/03/15 11:22:43;;;;;;;10.82;8.23;;;;;;;17.62;19.91;101347.81;4348086;33;33105;-90
2022/03/15 11:25:20;;;;;;;10.55;7.07;;;;;;;17.06;20.41;101346.03;4360683;32;33293;-90
2022/03/15 11:27:52;;;;;;;11.55;7.43;;;;;;;17.08;20.33;101343.28;4348437;33;32501;-90
2022/03/15 11:30:21;;;;;;;11.02;8.02;;;;;;;17.70;19.89;101330.53;4348007;33;33246;-90